createdAt,value
2023-06-21T04:18:16.862Z,18.60
2023-06-21T04:23:19.834Z,18.60
2023-06-21T04:28:26.434Z,18.70
2023-06-21T04:33:31.173Z,18.60
2023-06-21T04:38:34.739Z,18.60
2023-06-21T04:43:37.465Z,18.60
2023-06-21T04:48:40.383Z,18.60
2023-06-21T04:53:46.957Z,18.70
2023-06-21T04:58:49.440Z,18.80
2023-06-21T05:03:54.283Z,18.90
2023-06-21T05:08:57.749Z,18.90
2023-06-21T05:13:59.818Z,19.00
2023-06-21T05:19:01.900Z,19.00
2023-06-21T05:24:04.327Z,19.10
2023-06-21T05:29:06.403Z,19.10
2023-06-21T05:34:08.483Z,19.10
2023-06-21T05:39:10.600Z,19.20
2023-06-21T05:44:12.675Z,19.30
2023-06-21T05:49:14.856Z,19.40
2023-06-21T05:54:16.945Z,19.50
2023-06-21T05:59:20.359Z,19.70
2023-06-21T06:04:22.649Z,19.80
2023-06-21T06:09:24.954Z,19.90
2023-06-21T06:14:27.454Z,20.00
2023-06-21T06:19:29.526Z,20.00
2023-06-21T06:24:31.742Z,20.10
2023-06-21T06:29:33.930Z,20.20
2023-06-21T06:34:36.071Z,20.40
2023-06-21T06:39:38.110Z,20.40
2023-06-21T06:44:40.257Z,20.30
2023-06-21T06:49:42.623Z,20.30
2023-06-21T06:54:44.691Z,20.50
2023-06-21T06:59:46.734Z,20.70
2023-06-21T07:04:48.927Z,20.80
2023-06-21T07:09:51.036Z,20.90
2023-06-21T07:14:54.445Z,21.00
2023-06-21T07:19:56.540Z,21.00
2023-06-21T07:24:59.080Z,21.00
2023-06-21T07:30:03.417Z,21.10
2023-06-21T07:35:05.962Z,21.30
2023-06-21T07:40:08.913Z,21.30
2023-06-21T07:45:11.055Z,21.50
2023-06-21T07:50:21.936Z,21.80
2023-06-21T07:55:25.271Z,21.70
2023-06-21T08:00:27.733Z,21.80
2023-06-21T08:05:30.084Z,21.90
2023-06-21T08:10:33.365Z,22.00
2023-06-21T08:15:35.463Z,21.90
2023-06-21T08:20:37.562Z,22.10
2023-06-21T08:25:39.752Z,22.10
2023-06-21T08:30:41.823Z,22.30
2023-06-21T08:35:43.877Z,22.60
2023-06-21T08:40:47.455Z,22.60
2023-06-21T08:45:50.749Z,22.60
2023-06-21T08:50:52.957Z,22.50
2023-06-21T08:55:56.165Z,22.50
2023-06-21T09:01:01.214Z,22.60
2023-06-21T09:06:05.631Z,22.70
2023-06-21T09:11:10.964Z,22.90
2023-06-21T09:16:14.106Z,23.20
2023-06-21T09:21:17.580Z,23.40
2023-06-21T09:26:20.057Z,23.70
2023-06-21T09:31:22.444Z,23.80
2023-06-21T09:36:25.682Z,23.70
2023-06-21T09:41:28.180Z,23.80
2023-06-21T09:46:30.528Z,24.10
2023-06-21T09:51:32.876Z,24.30
2023-06-21T09:56:36.586Z,25.00
2023-06-21T10:01:50.588Z,26.40
2023-06-21T10:06:56.897Z,26.50
2023-06-21T10:12:00.626Z,25.80
2023-06-21T10:17:04.951Z,26.50
2023-06-21T10:22:18.362Z,27.20
2023-06-21T10:27:22.029Z,28.80
2023-06-21T10:32:26.443Z,28.90
2023-06-21T10:37:52.320Z,30.60
2023-06-21T10:42:57.308Z,30.20
2023-06-21T10:48:00.237Z,29.90
2023-06-21T10:53:04.600Z,30.40
2023-06-21T10:58:07.638Z,31.10
2023-06-21T11:03:14.394Z,31.10
2023-06-21T11:08:16.812Z,30.20
2023-06-21T11:13:38.192Z,31.70
2023-06-21T11:18:40.880Z,29.90
2023-06-21T11:23:52.850Z,28.50
2023-06-21T11:28:56.922Z,27.60
2023-06-21T11:34:01.434Z,27.10
2023-06-21T11:39:07.276Z,27.60
2023-06-21T11:44:11.866Z,28.30
2023-06-21T11:49:15.200Z,29.40
2023-06-21T11:54:35.761Z,29.30
2023-06-21T11:59:38.915Z,30.30
2023-06-21T12:04:43.009Z,30.80
2023-06-21T12:09:53.770Z,32.00
2023-06-21T12:15:00.443Z,31.60
2023-06-21T12:20:06.747Z,30.60
2023-06-21T12:25:09.179Z,31.00
2023-06-21T12:30:12.296Z,32.10
2023-06-21T12:35:17.266Z,31.60
2023-06-21T12:40:19.822Z,29.50
2023-06-21T12:45:22.492Z,28.80
2023-06-21T12:50:25.033Z,29.10
2023-06-21T12:55:27.633Z,28.50
2023-06-21T13:00:30.358Z,28.40
2023-06-21T13:05:33.104Z,29.70
2023-06-21T13:10:35.695Z,30.40
2023-06-21T13:15:37.994Z,30.30
2023-06-21T13:20:40.457Z,29.50
2023-06-21T13:25:42.939Z,29.20
2023-06-21T13:30:45.672Z,29.90
2023-06-21T13:35:48.694Z,30.40
2023-06-21T13:40:52.014Z,31.40
2023-06-21T13:45:54.686Z,31.10
2023-06-21T13:50:58.927Z,31.50
2023-06-21T13:56:01.373Z,30.20
2023-06-21T14:01:03.727Z,29.50
2023-06-21T14:06:06.263Z,28.50
2023-06-21T14:11:08.801Z,29.00
2023-06-21T14:16:11.507Z,29.00
2023-06-21T14:21:13.871Z,28.70
2023-06-21T14:26:16.073Z,28.40
2023-06-21T14:31:18.532Z,29.30
2023-06-21T14:36:21.511Z,29.70
2023-06-21T14:41:26.633Z,29.70
2023-06-21T14:46:29.095Z,30.70
2023-06-21T14:51:31.442Z,30.80
2023-06-21T14:56:34.251Z,29.90
2023-06-21T15:01:38.983Z,29.60
2023-06-21T15:06:43.992Z,29.40
2023-06-21T15:11:47.074Z,29.50
2023-06-21T15:16:50.846Z,29.30
2023-06-21T15:21:53.784Z,28.60
2023-06-21T15:26:55.986Z,28.80
2023-06-21T15:31:58.379Z,28.80
2023-06-21T15:37:00.739Z,28.50
2023-06-21T15:42:03.138Z,28.20
2023-06-21T15:47:05.926Z,28.00
2023-06-21T15:52:08.719Z,27.90
2023-06-21T15:57:11.506Z,27.90
2023-06-21T16:02:13.760Z,27.80
2023-06-21T16:07:16.165Z,27.70
2023-06-21T16:12:18.578Z,28.30
2023-06-21T16:17:20.767Z,28.40
2023-06-21T16:22:22.938Z,28.00
2023-06-21T16:27:25.150Z,27.80
2023-06-21T16:32:27.375Z,27.40
2023-06-21T16:37:29.540Z,27.60
2023-06-21T16:42:32.111Z,27.20
2023-06-21T16:47:34.295Z,26.50
2023-06-21T16:52:36.621Z,26.30
2023-06-21T16:57:39.517Z,26.40
2023-06-21T17:02:42.224Z,27.10
2023-06-21T17:07:44.636Z,26.80
2023-06-21T17:12:47.034Z,27.20
2023-06-21T17:17:49.653Z,27.10
2023-06-21T17:22:52.362Z,27.10
2023-06-21T17:27:54.997Z,26.40
2023-06-21T17:32:57.481Z,25.80
2023-06-21T17:38:00.625Z,25.70
2023-06-21T17:43:03.275Z,26.00
2023-06-21T17:48:05.982Z,26.60
2023-06-21T17:53:08.927Z,28.10
2023-06-21T17:58:11.905Z,28.10
2023-06-21T18:03:15.468Z,27.50
2023-06-21T18:08:17.811Z,26.20
2023-06-21T18:13:20.278Z,25.20
2023-06-21T18:18:23.749Z,24.60
2023-06-21T18:23:26.013Z,24.30
2023-06-21T18:28:28.165Z,23.90
2023-06-21T18:33:30.414Z,23.90
2023-06-21T18:38:34.285Z,23.70
2023-06-21T18:43:36.874Z,23.60
2023-06-21T18:48:40.095Z,23.50
2023-06-21T18:53:42.545Z,23.30
2023-06-21T18:58:45.373Z,23.40
2023-06-21T19:03:48.312Z,23.20
2023-06-21T19:08:50.890Z,22.90
2023-06-21T19:13:53.612Z,22.70
2023-06-21T19:18:55.791Z,22.60
2023-06-21T19:23:58.075Z,22.40
2023-06-21T19:29:00.790Z,22.30
2023-06-21T19:34:03.413Z,22.20
2023-06-21T19:39:05.823Z,22.20
2023-06-21T19:44:14.514Z,22.00
2023-06-21T19:49:18.848Z,21.80
2023-06-21T19:54:21.570Z,21.60
2023-06-21T19:59:23.823Z,21.40
2023-06-21T20:04:26.315Z,21.20
2023-06-21T20:09:28.664Z,21.10
2023-06-21T20:14:31.626Z,20.80
2023-06-21T20:19:36.746Z,20.70
2023-06-21T20:24:39.390Z,20.70
2023-06-21T20:29:41.794Z,20.60
2023-06-21T20:34:45.388Z,20.40
2023-06-21T20:39:48.836Z,20.40
2023-06-21T20:44:51.482Z,20.30
2023-06-21T20:49:54.599Z,20.20
2023-06-21T20:54:57.024Z,20.00
2023-06-21T20:59:59.476Z,19.80
2023-06-21T21:05:02.508Z,19.70
2023-06-21T21:10:04.964Z,19.70
2023-06-21T21:15:09.534Z,19.60
2023-06-21T21:20:12.404Z,19.50
2023-06-21T21:25:14.724Z,19.50
2023-06-21T21:30:17.127Z,19.50
2023-06-21T21:35:20.062Z,19.50
2023-06-21T21:40:24.188Z,19.40
2023-06-21T21:45:27.936Z,19.30
2023-06-21T21:50:30.492Z,19.30
2023-06-21T21:55:33.174Z,19.30
2023-06-21T22:00:35.627Z,19.20
2023-06-21T22:05:38.084Z,19.20
2023-06-21T22:10:40.690Z,19.00
2023-06-21T22:15:51.975Z,18.70
2023-06-21T22:20:58.462Z,18.60
2023-06-21T22:26:07.598Z,18.50
2023-06-21T22:31:13.707Z,18.40
2023-06-21T22:36:21.716Z,18.20
2023-06-21T22:41:26.170Z,18.20
2023-06-21T22:46:29.344Z,18.30
2023-06-21T22:51:34.461Z,18.30
2023-06-21T22:56:37.633Z,18.30
2023-06-21T23:01:39.908Z,18.30
2023-06-21T23:06:43.271Z,18.20
2023-06-21T23:11:45.987Z,18.20
2023-06-21T23:16:48.585Z,18.20
2023-06-21T23:21:51.075Z,18.20
2023-06-21T23:26:54.907Z,18.20
2023-06-21T23:31:57.700Z,18.20
2023-06-21T23:37:00.250Z,18.10
2023-06-21T23:42:03.553Z,18.10
2023-06-21T23:47:09.496Z,18.10
2023-06-21T23:52:12.709Z,18.10
2023-06-21T23:57:15.061Z,18.10
